createdAt,value
2017-10-10T00:08:14.706Z,43
2017-10-10T00:20:12.328Z,39
2017-10-10T00:32:08.867Z,42
2017-10-10T00:44:05.630Z,42
2017-10-10T00:56:01.788Z,42
2017-10-10T01:07:57.926Z,41
2017-10-10T01:19:54.388Z,42
2017-10-10T01:31:51.207Z,42
2017-10-10T01:43:47.842Z,42
2017-10-10T01:55:44.050Z,42
2017-10-10T02:07:40.365Z,41
2017-10-10T02:19:37.034Z,40
2017-10-10T02:31:33.574Z,40
2017-10-10T02:43:29.887Z,41
2017-10-10T02:55:26.274Z,40
2017-10-10T03:07:22.307Z,41
2017-10-10T03:19:18.805Z,41
2017-10-10T03:31:15.412Z,41
2017-10-10T03:43:11.465Z,41
2017-10-10T03:55:07.953Z,41
2017-10-10T04:07:04.631Z,40
2017-10-10T04:19:01.575Z,39
2017-10-10T04:30:58.609Z,41
2017-10-10T04:42:55.369Z,41
2017-10-10T04:54:52.427Z,38
2017-10-10T05:06:49.405Z,41
2017-10-10T05:18:48.174Z,41
2017-10-10T05:31:01.509Z,40
2017-10-10T05:43:04.508Z,41
2017-10-10T05:55:03.546Z,40
2017-10-10T06:07:01.548Z,40
2017-10-10T06:18:58.144Z,38
2017-10-10T06:31:00.671Z,40
2017-10-10T06:43:02.529Z,38
2017-10-10T06:54:59.749Z,39
2017-10-10T07:06:57.386Z,40
2017-10-10T07:18:55.150Z,38
2017-10-10T07:31:07.186Z,39
2017-10-10T07:43:06.933Z,37
2017-10-10T07:55:05.888Z,39
2017-10-10T08:07:06.450Z,37
2017-10-10T08:19:03.406Z,39
2017-10-10T08:31:02.547Z,39
2017-10-10T08:43:00.551Z,37
2017-10-10T08:54:58.007Z,39
2017-10-10T09:06:59.002Z,39
2017-10-10T09:18:59.423Z,39
2017-10-10T09:43:02.948Z,39
2017-10-10T09:55:02.967Z,39
2017-10-10T10:07:07.528Z,37
2017-10-10T10:19:21.231Z,38
2017-10-10T10:31:34.575Z,39
2017-10-10T10:43:36.094Z,39
2017-10-10T10:55:42.833Z,39
2017-10-10T11:07:43.246Z,39
2017-10-10T11:19:42.046Z,39
2017-10-10T11:31:44.424Z,39
2017-10-10T11:43:46.146Z,37
2017-10-10T11:55:46.847Z,37
2017-10-10T12:07:55.047Z,38
2017-10-10T12:20:11.427Z,37
2017-10-10T12:32:26.369Z,38
2017-10-10T12:44:31.489Z,35
2017-10-10T13:09:04.011Z,38
2017-10-10T13:21:08.305Z,38
2017-10-10T13:33:24.406Z,38
2017-10-10T13:45:34.582Z,37
2017-10-10T13:57:45.146Z,38
2017-10-10T14:09:47.792Z,37
2017-10-10T14:21:51.127Z,37
2017-10-10T14:33:53.989Z,36
2017-10-10T14:45:54.705Z,37
2017-10-10T14:57:57.172Z,34
2017-10-10T15:10:07.846Z,37
2017-10-10T15:22:29.832Z,37
2017-10-10T15:46:29.449Z,37
2017-10-10T15:58:39.245Z,35
2017-10-10T16:10:41.625Z,37
2017-10-10T16:22:43.469Z,37
2017-10-10T16:34:53.130Z,36
2017-10-10T17:11:24.648Z,36
2017-10-10T17:35:23.725Z,35
2017-10-10T17:47:31.304Z,36
2017-10-10T18:35:41.050Z,36
2017-10-10T18:47:43.171Z,35
2017-10-10T18:59:46.529Z,35
2017-10-10T19:11:52.272Z,35
2017-10-10T19:23:54.145Z,35
2017-10-10T19:35:57.070Z,32
2017-10-10T19:47:57.109Z,35
2017-10-10T19:59:55.386Z,35
2017-10-10T20:11:53.669Z,35
2017-10-10T20:23:54.423Z,35
2017-10-10T20:35:55.567Z,34
2017-10-10T20:47:54.406Z,34
2017-10-10T20:59:58.177Z,33
2017-10-10T21:12:10.609Z,34
2017-10-10T21:24:14.191Z,34
2017-10-10T21:36:20.238Z,34
2017-10-10T21:48:22.664Z,34
2017-10-10T22:12:22.112Z,33
2017-10-10T22:24:23.765Z,34
2017-10-10T22:36:30.976Z,32
2017-10-10T22:48:30.890Z,31
2017-10-10T23:00:30.308Z,33
2017-10-10T23:12:32.626Z,33
2017-10-10T23:24:32.609Z,32
2017-10-10T23:48:46.098Z,32
